createdAt,value
2022-12-11T00:00:58.858Z,-1.39
2022-12-11T00:01:58.758Z,-1.38
2022-12-11T00:02:58.675Z,-1.38
2022-12-11T00:03:59.452Z,-1.38
2022-12-11T00:04:58.419Z,-1.36
2022-12-11T00:05:58.420Z,-1.36
2022-12-11T00:06:58.724Z,-1.35
2022-12-11T00:07:58.658Z,-1.35
2022-12-11T00:08:58.739Z,-1.33
2022-12-11T00:09:58.434Z,-1.33
2022-12-11T00:10:58.552Z,-1.33
2022-12-11T00:11:59.276Z,-1.33
2022-12-11T00:12:59.484Z,-1.35
2022-12-11T00:13:58.571Z,-1.31
2022-12-11T00:14:58.391Z,-1.31
2022-12-11T00:15:58.409Z,-1.31
2022-12-11T00:16:58.507Z,-1.31
2022-12-11T00:17:58.553Z,-1.31
2022-12-11T00:18:58.400Z,-1.30
2022-12-11T00:19:58.506Z,-1.33
2022-12-11T00:20:58.315Z,-1.31
2022-12-11T00:21:59.562Z,-1.31
2022-12-11T00:22:58.513Z,-1.31
2022-12-11T00:23:58.642Z,-1.33
2022-12-11T00:24:58.683Z,-1.31
2022-12-11T00:25:58.138Z,-1.33
2022-12-11T00:26:58.518Z,-1.33
2022-12-11T00:27:58.474Z,-1.36
2022-12-11T00:28:58.390Z,-1.35
2022-12-11T00:29:59.568Z,-1.35
2022-12-11T00:30:58.074Z,-1.33
2022-12-11T00:31:58.229Z,-1.33
2022-12-11T00:32:58.108Z,-1.35
2022-12-11T00:33:58.296Z,-1.36
2022-12-11T00:34:58.323Z,-1.38
2022-12-11T00:35:58.957Z,-1.38
2022-12-11T00:36:58.930Z,-1.38
2022-12-11T00:37:58.119Z,-1.38
2022-12-11T00:38:58.024Z,-1.38
2022-12-11T00:39:58.631Z,-1.38
2022-12-11T00:40:58.054Z,-1.38
2022-12-11T00:41:58.352Z,-1.38
2022-12-11T00:42:58.449Z,-1.39
2022-12-11T00:43:57.865Z,-1.39
2022-12-11T00:44:58.150Z,-1.38
2022-12-11T00:45:58.414Z,-1.38
2022-12-11T00:46:59.093Z,-1.39
2022-12-11T00:47:58.662Z,-1.39
2022-12-11T00:48:59.035Z,-1.41
2022-12-11T00:49:58.213Z,-1.39
2022-12-11T00:50:58.337Z,-1.41
2022-12-11T00:51:58.607Z,-1.39
2022-12-11T00:52:58.437Z,-1.39
2022-12-11T00:53:58.568Z,-1.41
2022-12-11T00:54:58.941Z,-1.41
2022-12-11T00:55:58.042Z,-1.41
2022-12-11T00:56:59.079Z,-1.39
2022-12-11T00:57:59.101Z,-1.42
2022-12-11T00:58:57.841Z,-1.41
2022-12-11T00:59:58.184Z,-1.39
2022-12-11T01:00:57.995Z,-1.41
2022-12-11T01:01:57.688Z,-1.39
2022-12-11T01:02:58.506Z,-1.39
2022-12-11T01:03:57.885Z,-1.39
2022-12-11T01:04:57.935Z,-1.38
2022-12-11T01:05:58.234Z,-1.38
2022-12-11T01:06:58.016Z,-1.38
2022-12-11T01:07:57.743Z,-1.38
2022-12-11T01:08:57.733Z,-1.36
2022-12-11T01:09:57.640Z,-1.39
2022-12-11T01:10:57.739Z,-1.38
2022-12-11T01:11:57.568Z,-1.38
2022-12-11T01:12:57.558Z,-1.36
2022-12-11T01:13:57.747Z,-1.39
2022-12-11T01:14:57.577Z,-1.38
2022-12-11T01:15:57.694Z,-1.38
2022-12-11T01:16:57.526Z,-1.38
2022-12-11T01:17:59.651Z,-1.38
2022-12-11T01:18:57.604Z,-1.39
2022-12-11T01:19:57.501Z,-1.39
2022-12-11T01:20:58.627Z,-1.39
2022-12-11T01:21:59.691Z,-1.39
2022-12-11T01:22:58.884Z,-1.39
2022-12-11T01:23:59.318Z,-1.41
2022-12-11T01:24:57.324Z,-1.38
2022-12-11T01:25:57.517Z,-1.39
2022-12-11T01:26:57.437Z,-1.38
2022-12-11T01:27:57.553Z,-1.38
2022-12-11T01:28:57.478Z,-1.39
2022-12-11T01:29:57.373Z,-1.39
2022-12-11T01:30:57.505Z,-1.38
2022-12-11T01:31:57.289Z,-1.39
2022-12-11T01:32:57.284Z,-1.39
2022-12-11T01:33:57.510Z,-1.39
2022-12-11T01:34:57.315Z,-1.39
2022-12-11T01:35:57.926Z,-1.38
2022-12-11T01:36:57.345Z,-1.39
2022-12-11T01:37:57.333Z,-1.39
2022-12-11T01:38:57.556Z,-1.38
2022-12-11T01:39:57.352Z,-1.39
2022-12-11T01:40:57.345Z,-1.39
2022-12-11T01:41:57.452Z,-1.39
2022-12-11T01:42:57.177Z,-1.36
2022-12-11T01:43:57.176Z,-1.36
2022-12-11T01:44:57.056Z,-1.38
2022-12-11T01:45:57.538Z,-1.36
2022-12-11T01:46:57.286Z,-1.36
2022-12-11T01:47:57.089Z,-1.36
2022-12-11T01:48:57.094Z,-1.36
2022-12-11T01:49:57.096Z,-1.36
2022-12-11T01:50:57.114Z,-1.35
2022-12-11T01:51:57.115Z,-1.35
2022-12-11T01:52:57.030Z,-1.38
2022-12-11T01:53:57.119Z,-1.35
2022-12-11T01:54:57.130Z,-1.36
2022-12-11T01:55:57.252Z,-1.38
2022-12-11T01:56:56.943Z,-1.39
2022-12-11T01:57:56.857Z,-1.39
2022-12-11T01:58:56.957Z,-1.39
2022-12-11T01:59:57.154Z,-1.38
2022-12-11T02:00:56.935Z,-1.39
2022-12-11T02:01:56.891Z,-1.38
2022-12-11T02:02:56.894Z,-1.41
2022-12-11T02:03:56.988Z,-1.39
2022-12-11T02:04:57.402Z,-1.41
2022-12-11T02:05:57.092Z,-1.39
2022-12-11T02:06:56.923Z,-1.39
2022-12-11T02:07:56.750Z,-1.41
2022-12-11T02:08:56.827Z,-1.41
2022-12-11T02:09:57.735Z,-1.41
2022-12-11T02:10:56.843Z,-1.39
2022-12-11T02:11:56.733Z,-1.41
2022-12-11T02:12:56.884Z,-1.41
2022-12-11T02:13:56.651Z,-1.41
2022-12-11T02:14:56.839Z,-1.41
2022-12-11T02:15:56.925Z,-1.41
2022-12-11T02:16:56.690Z,-1.41
2022-12-11T02:17:56.698Z,-1.41
2022-12-11T02:18:56.672Z,-1.42
2022-12-11T02:19:56.685Z,-1.41
2022-12-11T02:20:56.694Z,-1.41
2022-12-11T02:21:56.600Z,-1.41
2022-12-11T02:22:56.633Z,-1.41
2022-12-11T02:23:56.626Z,-1.41
2022-12-11T02:24:57.367Z,-1.41
2022-12-11T02:25:56.624Z,-1.39
2022-12-11T02:26:56.550Z,-1.41
2022-12-11T02:27:56.562Z,-1.41
2022-12-11T02:28:56.663Z,-1.39
2022-12-11T02:29:56.602Z,-1.39
2022-12-11T02:30:56.652Z,-1.39
2022-12-11T02:31:56.843Z,-1.39
2022-12-11T02:32:57.273Z,-1.39
2022-12-11T02:33:56.584Z,-1.39
2022-12-11T02:34:56.581Z,-1.39
2022-12-11T02:35:56.497Z,-1.41
2022-12-11T02:36:56.551Z,-1.41
2022-12-11T02:37:56.539Z,-1.39
2022-12-11T02:38:56.515Z,-1.39
2022-12-11T02:39:56.452Z,-1.39
2022-12-11T02:40:56.829Z,-1.39
2022-12-11T02:41:56.341Z,-1.39
2022-12-11T02:42:56.250Z,-1.39
2022-12-11T02:43:57.280Z,-1.38
2022-12-11T02:44:56.267Z,-1.39
2022-12-11T02:45:56.424Z,-1.41
2022-12-11T02:46:56.461Z,-1.42
2022-12-11T02:47:56.362Z,-1.42
2022-12-11T02:48:56.512Z,-1.42
2022-12-11T02:49:56.292Z,-1.43
2022-12-11T02:50:56.377Z,-1.41
2022-12-11T02:51:56.220Z,-1.43
2022-12-11T02:52:56.219Z,-1.43
2022-12-11T02:53:56.317Z,-1.43
2022-12-11T02:54:56.275Z,-1.42
2022-12-11T02:55:56.121Z,-1.42
2022-12-11T02:56:56.212Z,-1.43
2022-12-11T02:57:56.031Z,-1.43
2022-12-11T02:58:58.667Z,-1.42
2022-12-11T02:59:56.181Z,-1.43
2022-12-11T03:00:56.471Z,-1.45
2022-12-11T03:01:56.134Z,-1.43
2022-12-11T03:02:56.310Z,-1.42
2022-12-11T03:03:56.362Z,-1.41
2022-12-11T03:04:56.334Z,-1.42
2022-12-11T03:05:56.184Z,-1.36
2022-12-11T03:06:56.099Z,-1.41
2022-12-11T03:07:56.049Z,-1.41
2022-12-11T03:08:56.069Z,-1.41
2022-12-11T03:09:55.935Z,-1.41
2022-12-11T03:10:56.009Z,-1.41
2022-12-11T03:11:56.058Z,-1.41
2022-12-11T03:12:56.364Z,-1.41
2022-12-11T03:13:55.928Z,-1.41
2022-12-11T03:14:55.870Z,-1.42
2022-12-11T03:15:55.909Z,-1.42
2022-12-11T03:16:56.095Z,-1.41
2022-12-11T03:17:55.959Z,-1.43
2022-12-11T03:18:56.096Z,-1.41
2022-12-11T03:19:56.123Z,-1.43
2022-12-11T03:20:55.755Z,-1.43
2022-12-11T03:21:56.132Z,-1.43
2022-12-11T03:22:55.936Z,-1.42
2022-12-11T03:23:55.824Z,-1.43
2022-12-11T03:24:55.919Z,-1.43
2022-12-11T03:25:55.827Z,-1.43
2022-12-11T03:26:56.669Z,-1.45
2022-12-11T03:27:55.765Z,-1.45
2022-12-11T03:28:55.655Z,-1.45
2022-12-11T03:29:55.681Z,-1.46
2022-12-11T03:30:55.919Z,-1.46
2022-12-11T03:31:55.983Z,-1.45
2022-12-11T03:32:55.984Z,-1.46
2022-12-11T03:33:55.969Z,-1.45
2022-12-11T03:34:58.310Z,-1.46
2022-12-11T03:35:56.513Z,-1.45
2022-12-11T03:36:55.692Z,-1.46
2022-12-11T03:37:55.611Z,-1.46
2022-12-11T03:38:56.959Z,-1.46
2022-12-11T03:39:55.536Z,-1.45
2022-12-11T03:40:55.544Z,-1.43
2022-12-11T03:41:55.528Z,-1.43
2022-12-11T03:42:55.640Z,-1.43
2022-12-11T03:43:55.601Z,-1.45
2022-12-11T03:44:55.447Z,-1.45
2022-12-11T03:45:55.714Z,-1.42
2022-12-11T03:46:55.478Z,-1.43
2022-12-11T03:47:55.571Z,-1.43
2022-12-11T03:48:55.376Z,-1.43
2022-12-11T03:49:55.295Z,-1.43
2022-12-11T03:50:55.406Z,-1.43
2022-12-11T03:51:55.400Z,-1.42
2022-12-11T03:52:55.391Z,-1.41
2022-12-11T03:53:55.409Z,-1.42
2022-12-11T03:54:55.420Z,-1.41
2022-12-11T03:55:55.428Z,-1.41
2022-12-11T03:56:56.172Z,-1.42
2022-12-11T03:57:56.396Z,-1.42
2022-12-11T03:58:55.469Z,-1.42
2022-12-11T03:59:55.782Z,-1.42
2022-12-11T04:00:56.366Z,-1.41
2022-12-11T04:01:56.485Z,-1.41
2022-12-11T04:02:57.119Z,-1.42
2022-12-11T04:03:56.753Z,-1.41
2022-12-11T04:04:55.094Z,-1.41
2022-12-11T04:05:55.185Z,-1.41
2022-12-11T04:06:55.295Z,-1.38
2022-12-11T04:07:55.431Z,-1.42
2022-12-11T04:08:55.218Z,-1.41
2022-12-11T04:09:56.140Z,-1.42
2022-12-11T04:10:55.124Z,-1.43
2022-12-11T04:11:55.125Z,-1.43
2022-12-11T04:12:56.444Z,-1.43
2022-12-11T04:13:55.239Z,-1.42
2022-12-11T04:14:55.155Z,-1.43
2022-12-11T04:15:55.077Z,-1.43
2022-12-11T04:16:55.176Z,-1.43
2022-12-11T04:17:54.979Z,-1.45
2022-12-11T04:18:54.995Z,-1.43
2022-12-11T04:19:55.105Z,-1.42
2022-12-11T04:20:54.981Z,-1.42
2022-12-11T04:21:55.122Z,-1.43
2022-12-11T04:22:55.028Z,-1.41
2022-12-11T04:23:55.213Z,-1.41
2022-12-11T04:24:54.906Z,-1.43
2022-12-11T04:25:54.898Z,-1.43
2022-12-11T04:26:54.854Z,-1.42
2022-12-11T04:27:54.935Z,-1.45
2022-12-11T04:28:54.859Z,-1.42
2022-12-11T04:29:54.977Z,-1.43
2022-12-11T04:30:54.987Z,-1.45
2022-12-11T04:31:54.856Z,-1.43
2022-12-11T04:32:54.766Z,-1.45
2022-12-11T04:33:54.882Z,-1.45
2022-12-11T04:34:55.117Z,-1.43
2022-12-11T04:35:54.889Z,-1.43
2022-12-11T04:36:55.106Z,-1.45
2022-12-11T04:37:55.864Z,-1.45
2022-12-11T04:38:55.620Z,-1.43
2022-12-11T04:39:55.037Z,-1.42
2022-12-11T04:40:54.647Z,-1.42
2022-12-11T04:41:54.932Z,-1.42
2022-12-11T04:42:54.632Z,-1.42
2022-12-11T04:43:55.377Z,-1.42
2022-12-11T04:44:54.674Z,-1.42
2022-12-11T04:45:54.767Z,-1.39
2022-12-11T04:46:54.739Z,-1.41
2022-12-11T04:47:54.881Z,-1.41
2022-12-11T04:48:57.606Z,-1.42
2022-12-11T04:49:54.600Z,-1.42
2022-12-11T04:50:54.488Z,-1.42
2022-12-11T04:51:55.016Z,-1.42
2022-12-11T04:52:54.615Z,-1.41
2022-12-11T04:53:54.500Z,-1.43
2022-12-11T04:54:54.534Z,-1.45
2022-12-11T04:55:54.516Z,-1.43
2022-12-11T04:56:54.415Z,-1.43
2022-12-11T04:57:54.648Z,-1.45
2022-12-11T04:58:54.438Z,-1.45
2022-12-11T04:59:55.386Z,-1.45
2022-12-11T05:00:54.393Z,-1.45
2022-12-11T05:01:54.844Z,-1.45
2022-12-11T05:02:55.701Z,-1.46
2022-12-11T05:03:54.702Z,-1.46
2022-12-11T05:04:54.689Z,-1.46
2022-12-11T05:05:54.378Z,-1.45
2022-12-11T05:06:54.199Z,-1.43
2022-12-11T05:07:54.477Z,-1.45
2022-12-11T05:08:55.386Z,-1.45
2022-12-11T05:09:54.342Z,-1.46
2022-12-11T05:10:54.354Z,-1.46
2022-12-11T05:11:54.337Z,-1.46
2022-12-11T05:12:54.208Z,-1.46
2022-12-11T05:13:54.135Z,-1.46
2022-12-11T05:14:54.231Z,-1.46
2022-12-11T05:15:55.438Z,-1.45
2022-12-11T05:16:54.357Z,-1.46
2022-12-11T05:17:54.290Z,-1.46
2022-12-11T05:18:54.377Z,-1.46
2022-12-11T05:19:54.180Z,-1.48
2022-12-11T05:20:54.209Z,-1.48
2022-12-11T05:21:54.399Z,-1.49
2022-12-11T05:22:54.231Z,-1.51
2022-12-11T05:23:54.265Z,-1.53
2022-12-11T05:24:54.118Z,-1.56
2022-12-11T05:25:54.442Z,-1.56
2022-12-11T05:26:54.459Z,-1.59
2022-12-11T05:27:54.078Z,-1.60
2022-12-11T05:28:54.139Z,-1.62
2022-12-11T05:29:59.251Z,-1.63
2022-12-11T05:30:55.148Z,-1.64
2022-12-11T05:31:54.675Z,-1.67
2022-12-11T05:32:54.267Z,-1.69
2022-12-11T05:33:54.106Z,-1.69
2022-12-11T05:34:53.982Z,-1.69
2022-12-11T05:35:54.006Z,-1.72
2022-12-11T05:36:54.502Z,-1.70
2022-12-11T05:37:53.926Z,-1.70
2022-12-11T05:38:54.013Z,-1.72
2022-12-11T05:39:53.828Z,-1.69
2022-12-11T05:40:54.006Z,-1.69
2022-12-11T05:41:54.250Z,-1.70
2022-12-11T05:42:53.860Z,-1.72
2022-12-11T05:43:53.960Z,-1.75
2022-12-11T05:44:53.740Z,-1.77
2022-12-11T05:45:53.783Z,-1.78
2022-12-11T05:46:54.531Z,-1.82
2022-12-11T05:47:53.794Z,-1.87
2022-12-11T05:48:54.053Z,-1.93
2022-12-11T05:49:53.799Z,-1.96
2022-12-11T05:50:54.702Z,-2.02
2022-12-11T05:51:53.801Z,-2.08
2022-12-11T05:52:53.705Z,-2.14
2022-12-11T05:53:53.671Z,-2.24
2022-12-11T05:54:53.638Z,-2.38
2022-12-11T05:55:53.754Z,-2.45
2022-12-11T05:56:53.838Z,-2.53
2022-12-11T05:57:53.746Z,-2.58
2022-12-11T05:58:53.666Z,-2.68
2022-12-11T05:59:54.570Z,-2.72
2022-12-11T06:00:53.669Z,-2.76
2022-12-11T06:01:53.763Z,-2.79
2022-12-11T06:02:53.680Z,-2.87
2022-12-11T06:03:53.581Z,-2.92
2022-12-11T06:04:53.574Z,-2.99
2022-12-11T06:05:53.770Z,-3.07
2022-12-11T06:06:53.609Z,-3.15
2022-12-11T06:07:53.689Z,-3.28
2022-12-11T06:08:53.599Z,-3.36
2022-12-11T06:09:53.617Z,-3.41
2022-12-11T06:10:53.502Z,-3.46
2022-12-11T06:11:53.446Z,-3.51
2022-12-11T06:12:53.448Z,-3.60
2022-12-11T06:13:53.340Z,-3.65
2022-12-11T06:14:53.485Z,-3.71
2022-12-11T06:15:53.483Z,-3.76
2022-12-11T06:16:53.366Z,-3.83
2022-12-11T06:17:53.572Z,-3.90
2022-12-11T06:18:57.152Z,-3.93
2022-12-11T06:19:54.632Z,-3.96
2022-12-11T06:20:53.517Z,-4.01
2022-12-11T06:21:53.484Z,-4.07
2022-12-11T06:22:53.405Z,-4.12
2022-12-11T06:23:53.313Z,-4.20
2022-12-11T06:24:53.720Z,-4.29
2022-12-11T06:25:53.319Z,-4.30
2022-12-11T06:26:53.350Z,-4.37
2022-12-11T06:27:53.228Z,-4.41
2022-12-11T06:28:53.268Z,-4.46
2022-12-11T06:29:53.351Z,-4.51
2022-12-11T06:30:53.540Z,-4.55
2022-12-11T06:31:53.262Z,-4.55
2022-12-11T06:32:53.173Z,-4.55
2022-12-11T06:33:53.095Z,-4.57
2022-12-11T06:34:53.332Z,-4.58
2022-12-11T06:35:53.414Z,-4.50
2022-12-11T06:36:53.117Z,-4.48
2022-12-11T06:37:53.526Z,-4.46
2022-12-11T06:38:53.234Z,-4.48
2022-12-11T06:39:53.398Z,-4.47
2022-12-11T06:40:53.396Z,-4.50
2022-12-11T06:41:53.604Z,-4.54
2022-12-11T06:42:53.226Z,-4.57
2022-12-11T06:43:54.385Z,-4.64
2022-12-11T06:44:52.990Z,-4.73
2022-12-11T06:45:53.102Z,-4.80
2022-12-11T06:46:52.894Z,-4.86
2022-12-11T06:47:53.069Z,-4.91
2022-12-11T06:48:52.972Z,-4.97
2022-12-11T06:49:53.108Z,-5.01
2022-12-11T06:50:52.986Z,-5.04
2022-12-11T06:51:52.993Z,-5.08
2022-12-11T06:52:53.101Z,-5.12
2022-12-11T06:53:53.019Z,-5.17
2022-12-11T06:54:52.919Z,-5.22
2022-12-11T06:55:53.346Z,-5.26
2022-12-11T06:56:52.955Z,-5.31
2022-12-11T06:57:53.154Z,-5.35
2022-12-11T06:58:52.757Z,-5.41
2022-12-11T06:59:52.941Z,-5.47
2022-12-11T07:00:53.404Z,-5.54
2022-12-11T07:01:52.881Z,-5.58
2022-12-11T07:02:52.564Z,-5.61
2022-12-11T07:03:52.776Z,-5.65
2022-12-11T07:04:55.205Z,-5.67
2022-12-11T07:05:52.677Z,-5.70
2022-12-11T07:06:52.782Z,-5.69
2022-12-11T07:07:52.611Z,-5.67
2022-12-11T07:08:52.590Z,-5.65
2022-12-11T07:09:52.628Z,-5.63
2022-12-11T07:10:52.606Z,-5.62
2022-12-11T07:11:52.617Z,-5.65
2022-12-11T07:12:52.621Z,-5.70
2022-12-11T07:13:53.058Z,-5.72
2022-12-11T07:14:52.564Z,-5.70
2022-12-11T07:15:52.645Z,-5.58
2022-12-11T07:16:52.586Z,-5.45
2022-12-11T07:17:52.584Z,-5.34
2022-12-11T07:18:52.675Z,-5.26
2022-12-11T07:19:52.706Z,-5.17
2022-12-11T07:20:52.673Z,-5.12
2022-12-11T07:21:52.591Z,-5.05
2022-12-11T07:22:52.416Z,-5.03
2022-12-11T07:23:52.503Z,-4.97
2022-12-11T07:24:52.635Z,-4.97
2022-12-11T07:25:52.430Z,-4.93
2022-12-11T07:26:52.539Z,-4.87
2022-12-11T07:27:52.439Z,-4.85
2022-12-11T07:28:52.424Z,-4.82
2022-12-11T07:29:52.956Z,-4.82
2022-12-11T07:30:53.016Z,-4.79
2022-12-11T07:31:52.491Z,-4.77
2022-12-11T07:32:52.714Z,-4.76
2022-12-11T07:33:52.362Z,-4.77
2022-12-11T07:34:52.607Z,-4.77
2022-12-11T07:35:52.295Z,-4.76
2022-12-11T07:36:52.392Z,-4.75
2022-12-11T07:37:52.300Z,-4.73
2022-12-11T07:38:52.216Z,-4.71
2022-12-11T07:39:52.277Z,-4.71
2022-12-11T07:40:52.220Z,-4.71
2022-12-11T07:41:52.417Z,-4.73
2022-12-11T07:42:52.336Z,-4.73
2022-12-11T07:43:52.038Z,-4.76
2022-12-11T07:44:52.137Z,-4.77
2022-12-11T07:45:52.086Z,-4.79
2022-12-11T07:46:52.254Z,-4.80
2022-12-11T07:47:52.153Z,-4.82
2022-12-11T07:48:52.240Z,-4.83
2022-12-11T07:49:52.162Z,-4.83
2022-12-11T07:50:52.088Z,-4.86
2022-12-11T07:51:52.199Z,-4.87
2022-12-11T07:52:51.903Z,-4.87
2022-12-11T07:53:52.219Z,-4.91
2022-12-11T07:54:52.189Z,-4.95
2022-12-11T07:55:51.912Z,-5.00
2022-12-11T07:56:53.987Z,-5.01
2022-12-11T07:57:51.916Z,-5.05
2022-12-11T07:58:52.026Z,-5.12
2022-12-11T07:59:52.128Z,-5.14
2022-12-11T08:00:52.099Z,-5.22
2022-12-11T08:01:51.966Z,-5.25
2022-12-11T08:02:51.990Z,-5.31
2022-12-11T08:03:51.873Z,-5.37
2022-12-11T08:04:52.295Z,-5.37
2022-12-11T08:05:51.887Z,-5.41
2022-12-11T08:06:51.796Z,-5.43
2022-12-11T08:07:51.940Z,-5.38
2022-12-11T08:08:51.915Z,-5.35
2022-12-11T08:09:52.318Z,-5.33
2022-12-11T08:10:51.743Z,-5.31
2022-12-11T08:11:51.861Z,-5.27
2022-12-11T08:12:51.933Z,-5.25
2022-12-11T08:13:51.758Z,-5.27
2022-12-11T08:14:52.646Z,-5.27
2022-12-11T08:15:52.006Z,-5.26
2022-12-11T08:16:51.795Z,-5.26
2022-12-11T08:17:51.571Z,-5.26
2022-12-11T08:18:52.097Z,-5.30
2022-12-11T08:19:51.675Z,-5.25
2022-12-11T08:20:51.903Z,-5.22
2022-12-11T08:21:51.837Z,-5.19
2022-12-11T08:22:56.045Z,-5.17
2022-12-11T08:23:53.743Z,-5.16
2022-12-11T08:24:51.621Z,-5.08
2022-12-11T08:25:52.825Z,-5.12
2022-12-11T08:26:51.607Z,-5.12
2022-12-11T08:27:51.646Z,-5.11
2022-12-11T08:28:52.256Z,-5.14
2022-12-11T08:29:51.621Z,-5.14
2022-12-11T08:30:51.554Z,-5.08
2022-12-11T08:31:51.656Z,-5.11
2022-12-11T08:32:51.657Z,-5.08
2022-12-11T08:33:51.887Z,-5.07
2022-12-11T08:34:51.983Z,-5.12
2022-12-11T08:35:51.564Z,-5.12
2022-12-11T08:36:51.497Z,-5.12
2022-12-11T08:37:51.400Z,-5.12
2022-12-11T08:38:51.602Z,-5.14
2022-12-11T08:39:51.536Z,-5.17
2022-12-11T08:40:51.425Z,-5.20
2022-12-11T08:41:52.263Z,-5.23
2022-12-11T08:42:53.251Z,-5.20
2022-12-11T08:43:51.565Z,-5.19
2022-12-11T08:44:52.241Z,-5.12
2022-12-11T08:45:53.234Z,-5.11
2022-12-11T08:46:52.091Z,-5.07
2022-12-11T08:47:51.556Z,-5.03
2022-12-11T08:48:52.380Z,-5.00
2022-12-11T08:49:51.293Z,-4.93
2022-12-11T08:50:52.517Z,-4.86
2022-12-11T08:51:52.614Z,-4.80
2022-12-11T08:52:52.144Z,-4.76
2022-12-11T08:53:51.201Z,-4.69
2022-12-11T08:54:51.742Z,-4.64
2022-12-11T08:55:51.229Z,-4.59
2022-12-11T08:56:56.299Z,-4.57
2022-12-11T08:57:52.280Z,-4.54
2022-12-11T08:58:51.137Z,-4.51
2022-12-11T08:59:51.345Z,-4.48
2022-12-11T09:00:51.166Z,-4.46
2022-12-11T09:01:51.194Z,-4.43
2022-12-11T09:02:51.642Z,-4.46
2022-12-11T09:03:51.086Z,-4.41
2022-12-11T09:04:51.069Z,-4.40
2022-12-11T09:05:50.982Z,-4.37
2022-12-11T09:06:50.967Z,-4.36
2022-12-11T09:07:51.114Z,-4.33
2022-12-11T09:08:52.859Z,-4.32
2022-12-11T09:09:51.027Z,-4.30
2022-12-11T09:10:51.031Z,-4.30
2022-12-11T09:11:50.929Z,-4.29
2022-12-11T09:12:50.913Z,-4.25
2022-12-11T09:13:50.850Z,-4.19
2022-12-11T09:14:50.961Z,-4.12
2022-12-11T09:15:51.367Z,-4.08
2022-12-11T09:16:50.869Z,-4.02
2022-12-11T09:17:51.950Z,-3.99
2022-12-11T09:18:51.390Z,-3.94
2022-12-11T09:19:50.776Z,-3.91
2022-12-11T09:20:50.883Z,-3.91
2022-12-11T09:21:50.802Z,-3.94
2022-12-11T09:22:50.905Z,-3.94
2022-12-11T09:23:50.894Z,-3.98
2022-12-11T09:24:50.814Z,-4.02
2022-12-11T09:25:50.901Z,-4.07
2022-12-11T09:26:50.801Z,-4.14
2022-12-11T09:27:50.717Z,-4.18
2022-12-11T09:28:50.843Z,-4.22
2022-12-11T09:29:50.658Z,-4.20
2022-12-11T09:30:51.030Z,-4.20
2022-12-11T09:31:50.641Z,-4.20
2022-12-11T09:32:50.942Z,-4.15
2022-12-11T09:33:50.886Z,-4.09
2022-12-11T09:34:50.574Z,-4.02
2022-12-11T09:35:50.856Z,-3.96
2022-12-11T09:36:50.595Z,-3.89
2022-12-11T09:37:50.800Z,-3.84
2022-12-11T09:38:51.206Z,-3.78
2022-12-11T09:39:50.530Z,-3.68
2022-12-11T09:40:50.738Z,-3.60
2022-12-11T09:41:50.645Z,-3.50
2022-12-11T09:42:50.642Z,-3.43
2022-12-11T09:43:50.730Z,-3.35
2022-12-11T09:44:51.553Z,-3.31
2022-12-11T09:45:50.558Z,-3.28
2022-12-11T09:46:50.677Z,-3.28
2022-12-11T09:47:50.548Z,-3.31
2022-12-11T09:48:50.467Z,-3.26
2022-12-11T09:49:51.415Z,-3.26
2022-12-11T09:50:50.578Z,-3.23
2022-12-11T09:51:50.505Z,-3.22
2022-12-11T09:52:50.388Z,-3.22
2022-12-11T09:53:50.482Z,-3.20
2022-12-11T09:54:50.435Z,-3.17
2022-12-11T09:55:50.318Z,-3.14
2022-12-11T09:56:50.411Z,-3.11
2022-12-11T09:57:50.425Z,-3.08
2022-12-11T09:58:50.345Z,-3.10
2022-12-11T09:59:50.553Z,-3.07
2022-12-11T10:00:51.278Z,-3.02
2022-12-11T10:01:50.312Z,-2.97
2022-12-11T10:02:50.356Z,-2.93
2022-12-11T10:03:51.374Z,-2.90
2022-12-11T10:04:50.263Z,-2.90
2022-12-11T10:05:50.302Z,-2.89
2022-12-11T10:06:50.394Z,-2.85
2022-12-11T10:07:50.485Z,-2.79
2022-12-11T10:08:50.179Z,-2.75
2022-12-11T10:09:50.528Z,-2.72
2022-12-11T10:10:50.403Z,-2.71
2022-12-11T10:11:56.134Z,-2.71
2022-12-11T10:12:51.271Z,-2.69
2022-12-11T10:13:50.320Z,-2.69
2022-12-11T10:14:50.402Z,-2.68
2022-12-11T10:15:50.228Z,-2.66
2022-12-11T10:16:50.226Z,-2.64
2022-12-11T10:17:50.083Z,-2.63
2022-12-11T10:18:50.274Z,-2.60
2022-12-11T10:19:50.098Z,-2.56
2022-12-11T10:20:50.191Z,-2.53
2022-12-11T10:21:50.102Z,-2.51
2022-12-11T10:22:50.207Z,-2.51
2022-12-11T10:23:49.988Z,-2.50
2022-12-11T10:25:51.148Z,-2.48
2022-12-11T10:26:49.919Z,-2.48
2022-12-11T10:27:50.140Z,-2.47
2022-12-11T10:28:49.949Z,-2.48
2022-12-11T10:29:49.934Z,-2.47
2022-12-11T10:30:50.100Z,-2.47
2022-12-11T10:31:49.958Z,-2.43
2022-12-11T10:32:50.359Z,-2.45
2022-12-11T10:33:49.976Z,-2.47
2022-12-11T10:34:49.968Z,-2.47
2022-12-11T10:35:49.901Z,-2.45
2022-12-11T10:36:49.975Z,-2.45
2022-12-11T10:37:49.918Z,-2.45
2022-12-11T10:38:49.810Z,-2.47
2022-12-11T10:39:49.810Z,-2.43
2022-12-11T10:40:50.224Z,-2.42
2022-12-11T10:41:49.814Z,-2.42
2022-12-11T10:42:49.920Z,-2.42
2022-12-11T10:43:50.056Z,-2.40
2022-12-11T10:44:49.645Z,-2.43
2022-12-11T10:45:49.946Z,-2.47
2022-12-11T10:46:49.686Z,-2.51
2022-12-11T10:47:49.745Z,-2.54
2022-12-11T10:48:49.771Z,-2.56
2022-12-11T10:49:50.557Z,-2.54
2022-12-11T10:50:50.996Z,-2.53
2022-12-11T10:51:50.055Z,-2.53
2022-12-11T10:52:49.475Z,-2.53
2022-12-11T10:53:49.545Z,-2.56
2022-12-11T10:54:50.070Z,-2.57
2022-12-11T10:55:49.636Z,-2.57
2022-12-11T10:56:49.706Z,-2.61
2022-12-11T10:57:49.649Z,-2.58
2022-12-11T10:58:49.854Z,-2.56
2022-12-11T10:59:49.621Z,-2.54
2022-12-11T11:00:49.569Z,-2.48
2022-12-11T11:01:49.627Z,-2.42
2022-12-11T11:02:49.697Z,-2.40
2022-12-11T11:03:49.888Z,-2.39
2022-12-11T11:04:51.623Z,-2.38
2022-12-11T11:05:49.791Z,-2.36
2022-12-11T11:06:49.418Z,-2.35
2022-12-11T11:07:49.942Z,-2.32
2022-12-11T11:08:49.592Z,-2.26
2022-12-11T11:09:49.316Z,-2.23
2022-12-11T11:10:49.430Z,-2.24
2022-12-11T11:11:49.415Z,-2.20
2022-12-11T11:12:49.431Z,-2.18
2022-12-11T11:13:49.228Z,-2.14
2022-12-11T11:14:53.019Z,-2.11
2022-12-11T11:15:50.158Z,-2.10
2022-12-11T11:16:49.259Z,-2.10
2022-12-11T11:17:54.905Z,-2.03
2022-12-11T11:18:50.507Z,-2.00
2022-12-11T11:19:49.382Z,-1.99
2022-12-11T11:20:49.293Z,-1.95
2022-12-11T11:21:49.177Z,-1.93
2022-12-11T11:22:49.317Z,-1.90
2022-12-11T11:23:53.205Z,-1.87
2022-12-11T11:24:49.121Z,-1.84
2022-12-11T11:25:49.734Z,-1.82
2022-12-11T11:27:12.345Z,-1.82
2022-12-11T11:28:11.122Z,-1.81
2022-12-11T11:28:49.117Z,-1.82
2022-12-11T11:29:53.079Z,-1.84
2022-12-11T11:30:49.927Z,-1.84
2022-12-11T11:31:49.229Z,-1.84
2022-12-11T11:32:49.162Z,-1.85
2022-12-11T11:33:49.075Z,-1.84
2022-12-11T11:34:49.053Z,-1.82
2022-12-11T11:35:48.883Z,-1.84
2022-12-11T11:36:49.146Z,-1.87
2022-12-11T11:37:48.902Z,-1.92
2022-12-11T11:38:49.293Z,-1.93
2022-12-11T11:39:49.523Z,-1.98
2022-12-11T11:40:48.887Z,-1.98
2022-12-11T11:41:49.347Z,-1.99
2022-12-11T11:42:50.382Z,-1.99
2022-12-11T11:43:48.845Z,-1.98
2022-12-11T11:44:49.187Z,-1.99
2022-12-11T11:45:49.750Z,-1.98
2022-12-11T11:46:48.890Z,-1.93
2022-12-11T11:47:48.977Z,-1.88
2022-12-11T11:48:49.166Z,-1.84
2022-12-11T11:49:49.157Z,-1.78
2022-12-11T11:50:49.232Z,-1.75
2022-12-11T11:51:48.685Z,-1.72
2022-12-11T11:52:49.032Z,-1.70
2022-12-11T11:53:48.856Z,-1.69
2022-12-11T11:54:49.015Z,-1.69
2022-12-11T11:55:48.814Z,-1.67
2022-12-11T11:56:48.596Z,-1.69
2022-12-11T11:57:48.927Z,-1.69
2022-12-11T11:58:48.735Z,-1.67
2022-12-11T11:59:48.916Z,-1.67
2022-12-11T12:00:48.933Z,-1.66
2022-12-11T12:01:48.659Z,-1.63
2022-12-11T12:02:48.882Z,-1.63
2022-12-11T12:03:48.736Z,-1.62
2022-12-11T12:04:48.640Z,-1.60
2022-12-11T12:05:48.772Z,-1.60
2022-12-11T12:06:50.940Z,-1.57
2022-12-11T12:07:49.008Z,-1.54
2022-12-11T12:08:48.716Z,-1.48
2022-12-11T12:09:48.659Z,-1.45
2022-12-11T12:10:48.601Z,-1.42
2022-12-11T12:11:48.717Z,-1.38
2022-12-11T12:12:48.740Z,-1.41
2022-12-11T12:13:49.962Z,-1.38
2022-12-11T12:14:52.790Z,-1.35
2022-12-11T12:15:48.557Z,-1.33
2022-12-11T12:16:53.153Z,-1.33
2022-12-11T12:17:55.092Z,-1.33
2022-12-11T12:18:49.394Z,-1.31
2022-12-11T12:19:48.374Z,-1.31
2022-12-11T12:20:48.404Z,-1.28
2022-12-11T12:21:48.422Z,-1.27
2022-12-11T12:22:48.286Z,-1.24
2022-12-11T12:23:48.616Z,-1.20
2022-12-11T12:24:48.294Z,-1.18
2022-12-11T12:25:48.317Z,-1.15
2022-12-11T12:26:48.515Z,-1.10
2022-12-11T12:27:52.845Z,-1.05
2022-12-11T12:28:49.460Z,-0.94
2022-12-11T12:29:48.332Z,-0.78
2022-12-11T12:30:48.138Z,-0.68
2022-12-11T12:31:48.384Z,-0.55
2022-12-11T12:32:48.548Z,-0.44
2022-12-11T12:33:48.374Z,-0.31
2022-12-11T12:34:48.087Z,-0.26
2022-12-11T12:35:48.271Z,-0.15
2022-12-11T12:36:48.400Z,-0.06
2022-12-11T12:37:48.082Z,0.06
2022-12-11T12:38:48.313Z,0.20
2022-12-11T12:39:48.101Z,0.36
2022-12-11T12:40:48.316Z,0.52
2022-12-11T12:41:48.121Z,0.70
2022-12-11T12:42:48.518Z,0.85
2022-12-11T12:43:48.463Z,0.90
2022-12-11T12:44:48.234Z,1.03
2022-12-11T12:45:48.116Z,1.14
2022-12-11T12:46:48.328Z,1.10
2022-12-11T12:47:53.226Z,1.15
2022-12-11T12:48:49.262Z,1.24
2022-12-11T12:49:47.904Z,1.26
2022-12-11T12:50:49.034Z,1.29
2022-12-11T12:51:52.082Z,1.28
2022-12-11T12:52:48.201Z,1.28
2022-12-11T12:53:47.996Z,1.32
2022-12-11T12:54:47.981Z,1.34